Time;durP1;ratioP1;P1;durP2;ratioP2;P2;SDS_P1;SDS_P2;PMS_P1;PMS_P2;Temp;Humidity;BMP_temperature;BMP_pressure;BME280_temperature;BME280_humidity;BME280_pressure;Samples;Min_cycle;Max_cycle;Signal;HPM_P1;HPM_P2
2023/02/21 02:14:26;;;;;;;20.48;15.27;;;;;;;1.63;100.00;100965.97;5038698;28;20123;-72
2023/02/21 02:17:03;;;;;;;19.95;15.77;;;;;;;1.58;100.00;100963.91;5034892;28;20489;-72
2023/02/21 02:19:54;;;;;;;18.30;15.07;;;;;;;1.58;100.00;100960.34;5034797;28;20119;-72
2023/02/21 02:22:39;;;;;;;20.40;14.80;;;;;;;1.56;100.00;100957.81;5015206;28;20029;-73
2023/02/21 02:25:16;;;;;;;20.35;14.75;;;;;;;1.51;100.00;100952.19;5034770;28;20039;-72
2023/02/21 02:28:07;;;;;;;18.55;13.85;;;;;;;1.48;100.00;100948.00;5047994;28;20025;-72
2023/02/21 02:30:42;;;;;;;17.92;13.82;;;;;;;1.44;100.00;100949.50;5033040;28;20502;-72
2023/02/21 02:33:45;;;;;;;19.38;14.40;;;;;;;1.42;100.00;100934.34;5038194;28;20495;-72
2023/02/21 02:36:17;;;;;;;19.25;15.02;;;;;;;1.37;100.00;100935.03;5034406;28;20057;-73
2023/02/21 02:38:50;;;;;;;19.95;14.52;;;;;;;1.35;100.00;100926.19;5036914;28;20041;-72
2023/02/21 02:42:11;;;;;;;20.30;14.50;;;;;;;1.33;100.00;100922.84;5046019;28;20473;-72
2023/02/21 02:44:40;;;;;;;18.80;13.50;;;;;;;1.27;100.00;100918.28;5017389;28;20045;-72
2023/02/21 02:47:08;;;;;;;20.58;14.82;;;;;;;1.23;100.00;100922.53;5015802;28;20033;-72
2023/02/21 02:49:35;;;;;;;18.38;14.25;;;;;;;1.23;100.00;100914.31;5029621;28;20025;-72
2023/02/21 02:52:05;;;;;;;18.38;14.15;;;;;;;1.18;100.00;100909.50;5020954;28;20033;-72
2023/02/21 02:54:30;;;;;;;19.17;14.45;;;;;;;1.15;100.00;100914.59;5012142;28;20033;-72
2023/02/21 02:56:57;;;;;;;18.13;14.25;;;;;;;1.12;100.00;100904.94;5036309;28;20094;-72
2023/02/21 02:59:25;;;;;;;20.65;14.60;;;;;;;1.08;100.00;100901.78;5001254;28;20056;-72
2023/02/21 03:02:22;;;;;;;18.77;14.60;;;;;;;1.03;100.00;100892.56;5053008;28;20135;-72
2023/02/21 03:04:53;;;;;;;20.85;14.77;;;;;;;1.05;100.00;100896.75;5026027;28;20042;-72
2023/02/21 03:07:41;;;;;;;21.10;15.40;;;;;;;1.02;100.00;100890.91;5025523;28;20037;-72
2023/02/21 03:10:50;;;;;;;19.48;14.70;;;;;;;1.00;100.00;100893.84;5036864;28;20035;-72
2023/02/21 03:13:25;;;;;;;19.38;14.88;;;;;;;0.95;100.00;100885.47;5035213;28;20554;-72
2023/02/21 03:16:08;;;;;;;18.40;15.02;;;;;;;0.93;100.00;100890.31;5033714;28;20034;-72
2023/02/21 03:18:56;;;;;;;21.13;15.75;;;;;;;0.87;100.00;100883.00;5025447;28;20058;-72
2023/02/21 03:21:25;;;;;;;23.02;15.10;;;;;;;0.86;100.00;100878.59;5005351;28;20037;-73
2023/02/21 03:23:52;;;;;;;22.20;15.40;;;;;;;0.87;100.00;100885.75;5031799;28;20500;-72
2023/02/21 03:26:18;;;;;;;19.35;13.60;;;;;;;0.85;100.00;100885.13;5020770;28;20037;-72
2023/02/21 03:28:44;;;;;;;21.13;15.10;;;;;;;0.80;100.00;100885.78;5017198;28;20087;-72
2023/02/21 03:31:10;;;;;;;20.90;14.90;;;;;;;0.84;100.00;100887.03;5021984;28;20041;-72
2023/02/21 03:33:36;;;;;;;20.25;15.65;;;;;;;0.76;100.00;100875.53;5026660;28;20030;-72
2023/02/21 03:36:05;;;;;;;20.42;15.45;;;;;;;0.77;100.00;100877.19;5030278;28;20038;-72
2023/02/21 03:38:30;;;;;;;21.40;14.52;;;;;;;0.73;100.00;100881.44;5032397;28;20037;-72
2023/02/21 03:40:56;;;;;;;19.80;15.18;;;;;;;0.73;100.00;100885.00;5046922;28;20105;-72
2023/02/21 03:43:21;;;;;;;18.65;14.35;;;;;;;0.69;100.00;100883.75;5026869;28;20031;-73
2023/02/21 03:45:47;;;;;;;20.50;14.65;;;;;;;0.67;100.00;100880.41;5042707;28;20029;-72
2023/02/21 03:48:12;;;;;;;22.02;14.98;;;;;;;0.66;100.00;100881.44;5016951;28;20033;-72
2023/02/21 03:50:38;;;;;;;28.33;17.00;;;;;;;0.65;100.00;100874.31;5035215;28;20033;-72
2023/02/21 03:53:03;;;;;;;25.80;16.55;;;;;;;0.64;100.00;100886.28;5028531;28;20469;-72
2023/02/21 03:55:29;;;;;;;25.45;16.65;;;;;;;0.62;100.00;100881.06;5017259;28;20037;-72
2023/02/21 03:57:54;;;;;;;23.30;15.65;;;;;;;0.63;100.00;100868.22;5010424;28;20037;-72
2023/02/21 04:00:20;;;;;;;24.60;16.10;;;;;;;0.62;100.00;100863.81;5046657;28;20025;-72
2023/02/21 04:02:45;;;;;;;21.38;14.95;;;;;;;0.55;100.00;100866.59;5027082;28;20041;-72
2023/02/21 04:05:11;;;;;;;23.17;15.55;;;;;;;0.55;100.00;100863.03;5016722;28;20029;-72
2023/02/21 04:07:36;;;;;;;22.58;15.02;;;;;;;0.51;100.00;100859.91;5030535;28;20025;-72
2023/02/21 04:10:02;;;;;;;24.95;15.55;;;;;;;0.49;100.00;100855.69;5006180;28;20029;-72
2023/02/21 04:12:27;;;;;;;21.23;15.07;;;;;;;0.47;100.00;100847.72;5036382;28;20025;-72
2023/02/21 04:14:55;;;;;;;25.25;15.27;;;;;;;0.45;100.00;100844.38;5033652;28;20037;-72
2023/02/21 04:17:20;;;;;;;22.70;15.10;;;;;;;0.41;100.00;100843.13;5016861;28;20064;-72
2023/02/21 04:19:46;;;;;;;23.25;14.93;;;;;;;0.39;100.00;100842.50;5019579;28;20040;-72
2023/02/21 04:22:11;;;;;;;22.77;14.45;;;;;;;0.38;100.00;100840.84;5020604;28;20029;-72
2023/02/21 04:24:37;;;;;;;20.80;14.85;;;;;;;0.36;100.00;100835.59;5036984;28;20029;-72
2023/02/21 04:27:02;;;;;;;20.33;14.63;;;;;;;0.34;100.00;100843.19;5037153;28;20033;-72
2023/02/21 04:29:28;;;;;;;21.42;14.07;;;;;;;0.31;100.00;100834.59;5024678;28;20041;-72
2023/02/21 04:31:54;;;;;;;20.42;13.95;;;;;;;0.32;100.00;100837.09;5038563;28;20032;-72
2023/02/21 04:34:20;;;;;;;23.02;14.88;;;;;;;0.34;100.00;100842.34;5019138;28;20026;-72
2023/02/21 04:36:45;;;;;;;19.17;13.93;;;;;;;0.30;100.00;100841.91;5020105;28;20032;-72
2023/02/21 04:39:11;;;;;;;22.30;14.02;;;;;;;0.29;100.00;100834.78;5018924;28;20479;-73
2023/02/21 04:41:36;;;;;;;20.60;14.30;;;;;;;0.26;100.00;100842.59;5020338;28;20039;-72
2023/02/21 04:44:02;;;;;;;19.42;13.70;;;;;;;0.30;100.00;100836.47;5037757;28;20036;-72
2023/02/21 04:46:27;;;;;;;18.38;12.93;;;;;;;0.26;100.00;100831.66;5048301;28;20071;-72
2023/02/21 04:48:53;;;;;;;19.15;13.43;;;;;;;0.22;100.00;100832.09;5004779;28;20033;-72
2023/02/21 04:51:21;;;;;;;19.05;14.00;;;;;;;0.20;100.00;100836.94;5061104;28;20038;-72
2023/02/21 04:53:46;;;;;;;20.98;14.32;;;;;;;0.19;100.00;100837.97;5035606;28;20021;-72
2023/02/21 04:56:12;;;;;;;23.30;14.23;;;;;;;0.19;100.00;100834.41;5011205;28;20075;-72
2023/02/21 04:58:38;;;;;;;18.88;13.77;;;;;;;0.15;100.00;100833.19;5019652;28;20028;-72
2023/02/21 05:01:03;;;;;;;22.20;13.50;;;;;;;0.15;100.00;100830.47;5003272;28;20036;-72
2023/02/21 05:03:29;;;;;;;21.83;13.93;;;;;;;0.16;100.00;100822.03;5003390;28;20030;-72
2023/02/21 05:05:54;;;;;;;17.73;12.63;;;;;;;0.17;100.00;100823.72;5030665;28;20033;-72
2023/02/21 05:08:20;;;;;;;17.98;12.95;;;;;;;0.15;100.00;100825.00;5003123;28;20045;-72
2023/02/21 05:10:46;;;;;;;20.42;13.07;;;;;;;0.18;100.00;100830.00;5039401;28;20029;-72
2023/02/21 05:13:12;;;;;;;18.77;12.95;;;;;;;0.12;100.00;100826.25;5033419;28;20030;-72
2023/02/21 05:15:38;;;;;;;20.02;13.93;;;;;;;0.10;100.00;100822.91;5049045;28;20485;-72
2023/02/21 05:18:03;;;;;;;16.75;13.00;;;;;;;0.09;100.00;100823.13;5022857;28;20047;-72
2023/02/21 05:20:29;;;;;;;18.67;12.73;;;;;;;0.07;100.00;100827.97;5026265;28;20112;-72
2023/02/21 05:22:54;;;;;;;20.02;13.32;;;;;;;0.04;100.00;100812.84;5037093;28;20535;-72
2023/02/21 05:25:23;;;;;;;19.50;13.48;;;;;;;0.07;100.00;100817.88;5019486;28;20037;-72
2023/02/21 05:27:50;;;;;;;17.33;12.88;;;;;;;0.08;100.00;100821.44;5039425;28;20026;-72
2023/02/21 05:30:16;;;;;;;18.95;12.52;;;;;;;0.05;100.00;100819.16;5012355;28;20470;-72
2023/02/21 05:32:41;;;;;;;17.58;12.13;;;;;;;0.05;100.00;100811.78;5022236;28;20026;-72
2023/02/21 05:35:08;;;;;;;19.88;12.98;;;;;;;0.07;100.00;100812.41;5055661;28;20029;-72
2023/02/21 05:37:33;;;;;;;20.60;13.75;;;;;;;0.03;100.00;100811.19;5003112;28;20390;-72
2023/02/21 05:39:58;;;;;;;18.17;12.50;;;;;;;0.05;100.00;100813.69;4998799;28;20057;-72
2023/02/21 05:42:24;;;;;;;19.38;13.77;;;;;;;0.06;100.00;100801.72;5004898;28;20389;-72
2023/02/21 05:44:49;;;;;;;19.42;12.55;;;;;;;0.03;100.00;100799.41;5005226;28;20071;-72
2023/02/21 05:47:15;;;;;;;19.63;13.68;;;;;;;0.03;100.00;100802.13;5036813;28;20037;-72
2023/02/21 05:49:40;;;;;;;19.45;13.30;;;;;;;0.01;100.00;100805.09;5038725;28;20029;-72
2023/02/21 05:52:07;;;;;;;20.95;13.43;;;;;;;0.02;100.00;100804.03;5055249;28;20083;-73
2023/02/21 05:54:32;;;;;;;18.30;13.00;;;;;;;0.01;100.00;100802.38;4992066;28;20030;-72
2023/02/21 05:56:58;;;;;;;22.23;13.63;;;;;;;-0.03;100.00;100795.66;5036301;28;20029;-72
2023/02/21 05:59:23;;;;;;;19.80;13.35;;;;;;;-0.05;100.00;100800.50;5035049;28;20038;-72
2023/02/21 06:01:49;;;;;;;17.92;12.88;;;;;;;-0.03;100.00;100803.84;5036015;28;20037;-72
2023/02/21 06:04:15;;;;;;;20.23;13.23;;;;;;;-0.04;100.00;100796.72;5035703;28;20033;-72
2023/02/21 06:06:41;;;;;;;19.02;13.02;;;;;;;-0.03;100.00;100801.09;5019703;28;20030;-72
2023/02/21 06:09:06;;;;;;;19.33;13.10;;;;;;;-0.07;100.00;100803.44;5030920;28;20033;-72
2023/02/21 06:11:33;;;;;;;20.60;12.60;;;;;;;-0.04;100.00;100802.19;5018416;28;20033;-72
2023/02/21 06:14:00;;;;;;;18.85;12.52;;;;;;;-0.09;100.00;100794.63;5031117;28;20108;-72
2023/02/21 06:16:27;;;;;;;19.65;12.82;;;;;;;-0.08;100.00;100801.78;5038162;28;20052;-72
2023/02/21 06:18:54;;;;;;;18.08;13.15;;;;;;;-0.10;100.00;100797.59;5038492;28;20501;-72
2023/02/21 06:21:20;;;;;;;19.92;12.82;;;;;;;-0.09;100.00;100793.78;5021674;28;20119;-72
2023/02/21 06:23:45;;;;;;;19.83;13.25;;;;;;;-0.12;100.00;100792.34;5037788;28;20065;-72
2023/02/21 06:26:11;;;;;;;20.15;13.18;;;;;;;-0.08;100.00;100790.03;5001897;28;20057;-72
2023/02/21 06:28:37;;;;;;;20.67;12.95;;;;;;;-0.12;100.00;100789.59;5031247;28;20060;-72
2023/02/21 06:31:03;;;;;;;21.45;13.70;;;;;;;-0.13;100.00;100789.84;5034244;28;20029;-72
2023/02/21 06:33:28;;;;;;;20.73;13.20;;;;;;;-0.10;100.00;100787.50;5001851;28;20651;-73
2023/02/21 06:35:54;;;;;;;21.75;13.88;;;;;;;-0.11;100.00;100787.69;5014891;28;20052;-72
2023/02/21 06:38:19;;;;;;;20.17;13.30;;;;;;;-0.14;100.00;100782.69;5020619;28;20033;-72
2023/02/21 06:40:45;;;;;;;19.98;13.43;;;;;;;-0.16;100.00;100782.91;4986717;28;20076;-72
2023/02/21 06:43:10;;;;;;;19.98;12.88;;;;;;;-0.17;100.00;100769.47;5029635;28;20540;-72
2023/02/21 06:45:36;;;;;;;18.60;12.40;;;;;;;-0.12;100.00;100764.19;4992184;28;20434;-72
2023/02/21 06:48:01;;;;;;;19.85;13.30;;;;;;;-0.15;100.00;100768.19;5037538;28;20029;-72
2023/02/21 06:50:27;;;;;;;18.75;13.45;;;;;;;-0.19;100.00;100758.78;5035933;28;20033;-72
2023/02/21 06:52:52;;;;;;;21.00;13.48;;;;;;;-0.18;100.00;100763.19;5021849;28;20021;-72
2023/02/21 06:55:21;;;;;;;20.25;12.93;;;;;;;-0.20;100.00;100770.75;5037626;28;20025;-72
2023/02/21 06:57:47;;;;;;;22.55;14.60;;;;;;;-0.19;100.00;100756.06;5017668;28;20030;-72
2023/02/21 07:00:13;;;;;;;21.92;14.50;;;;;;;-0.19;100.00;100761.50;5014464;28;20044;-73
2023/02/21 07:02:39;;;;;;;21.77;13.85;;;;;;;-0.21;100.00;100757.31;5017821;28;20029;-72
2023/02/21 07:05:05;;;;;;;20.40;13.13;;;;;;;-0.18;100.00;100754.16;5024967;28;20029;-72
2023/02/21 07:07:31;;;;;;;20.88;14.00;;;;;;;-0.23;100.00;100755.63;5008900;28;20029;-72
2023/02/21 07:09:56;;;;;;;23.77;14.13;;;;;;;-0.21;100.00;100749.97;5018090;28;20026;-72
2023/02/21 07:12:22;;;;;;;19.33;13.90;;;;;;;-0.19;100.00;100750.59;5017481;28;20033;-72
2023/02/21 07:14:47;;;;;;;20.35;12.95;;;;;;;-0.20;100.00;100757.09;5033870;28;20029;-72
2023/02/21 07:17:12;;;;;;;19.23;13.10;;;;;;;-0.19;100.00;100757.94;5046360;28;20041;-72
2023/02/21 07:19:38;;;;;;;20.58;13.43;;;;;;;-0.25;100.00;100759.66;5017451;28;20026;-72
2023/02/21 07:22:04;;;;;;;20.63;13.40;;;;;;;-0.21;100.00;100754.59;5017664;28;20026;-72
2023/02/21 07:24:29;;;;;;;21.00;14.35;;;;;;;-0.23;100.00;100750.16;5017351;28;20025;-72
2023/02/21 07:26:55;;;;;;;20.63;14.15;;;;;;;-0.22;100.00;100756.50;5017435;28;20397;-72
2023/02/21 07:29:20;;;;;;;21.08;14.05;;;;;;;-0.22;100.00;100756.50;5014414;28;20033;-75
2023/02/21 07:31:46;;;;;;;23.08;13.60;;;;;;;-0.21;100.00;100758.16;5033460;28;20040;-72
2023/02/21 07:34:11;;;;;;;22.98;14.23;;;;;;;-0.20;100.00;100768.00;5015026;28;20112;-72
2023/02/21 07:36:37;;;;;;;20.38;13.70;;;;;;;-0.18;100.00;100760.44;5045832;28;20037;-72
2023/02/21 07:39:02;;;;;;;19.95;13.32;;;;;;;-0.16;100.00;100755.63;5025847;28;20473;-72
2023/02/21 07:41:28;;;;;;;20.20;13.40;;;;;;;-0.14;100.00;100758.09;5033631;28;20387;-72
2023/02/21 07:43:54;;;;;;;21.05;13.52;;;;;;;-0.17;100.00;100753.09;5018091;28;20029;-73
2023/02/21 07:46:19;;;;;;;24.05;14.43;;;;;;;-0.13;100.00;100754.34;5005289;28;20032;-72
2023/02/21 07:48:45;;;;;;;21.48;13.82;;;;;;;-0.07;100.00;100761.66;5034851;28;20664;-72
2023/02/21 07:51:10;;;;;;;20.48;13.10;;;;;;;-0.08;100.00;100765.47;5000956;28;20033;-72
2023/02/21 07:53:36;;;;;;;21.35;13.98;;;;;;;-0.02;100.00;100761.84;5032425;28;20022;-72
2023/02/21 07:56:02;;;;;;;22.90;13.43;;;;;;;0.03;100.00;100756.56;5048969;28;20025;-72
2023/02/21 07:58:28;;;;;;;21.65;13.90;;;;;;;0.08;100.00;100761.34;5039216;28;20030;-72
2023/02/21 08:00:54;;;;;;;20.60;13.20;;;;;;;0.10;100.00;100760.09;5037242;28;20032;-72
2023/02/21 08:03:20;;;;;;;24.90;14.90;;;;;;;0.10;100.00;100754.63;5037191;28;20025;-72
2023/02/21 08:05:45;;;;;;;21.75;14.57;;;;;;;0.21;100.00;100753.94;5041191;28;20072;-72
2023/02/21 08:08:11;;;;;;;21.55;14.50;;;;;;;0.24;100.00;100757.28;5020811;28;20079;-72
2023/02/21 08:10:36;;;;;;;22.27;15.07;;;;;;;0.30;100.00;100753.66;5049949;28;20040;-72
2023/02/21 08:13:02;;;;;;;24.00;14.13;;;;;;;0.34;100.00;100754.91;5040055;28;20083;-72
2023/02/21 08:15:28;;;;;;;26.50;15.35;;;;;;;0.36;100.00;100755.50;5037166;28;20026;-72
2023/02/21 08:17:53;;;;;;;24.83;15.57;;;;;;;0.41;100.00;100758.41;5038003;28;20042;-72
2023/02/21 08:20:19;;;;;;;21.70;14.63;;;;;;;0.47;100.00;100753.97;5038470;28;20037;-72
2023/02/21 08:22:44;;;;;;;26.00;15.60;;;;;;;0.53;100.00;100755.81;5036684;28;20036;-72
2023/02/21 08:25:11;;;;;;;24.52;14.98;;;;;;;0.58;100.00;100762.28;5048338;28;20032;-73
2023/02/21 08:27:40;;;;;;;22.60;14.95;;;;;;;0.66;100.00;100759.28;5038786;28;20034;-72
2023/02/21 08:30:07;;;;;;;24.98;16.10;;;;;;;0.73;100.00;100752.94;5036936;28;20397;-72
2023/02/21 08:32:34;;;;;;;26.52;15.70;;;;;;;0.80;100.00;100750.97;5040737;28;20033;-72
2023/02/21 08:34:59;;;;;;;27.42;16.70;;;;;;;0.85;100.00;100746.50;5054310;28;20025;-72
2023/02/21 08:37:31;;;;;;;28.48;17.08;;;;;;;0.93;100.00;100748.13;5040251;28;20112;-72
2023/02/21 08:39:57;;;;;;;27.30;16.92;;;;;;;1.03;100.00;100744.84;5044841;28;20053;-73
2023/02/21 08:42:22;;;;;;;28.08;16.73;;;;;;;1.09;100.00;100742.06;5036613;28;20033;-72
2023/02/21 08:44:48;;;;;;;27.90;16.98;;;;;;;1.18;100.00;100739.88;5036540;28;20112;-72
2023/02/21 08:47:14;;;;;;;27.85;16.75;;;;;;;1.25;100.00;100739.78;5021616;28;20044;-72
2023/02/21 08:49:41;;;;;;;26.08;16.70;;;;;;;1.34;100.00;100743.91;5011752;28;20034;-72
2023/02/21 08:52:07;;;;;;;27.48;16.85;;;;;;;1.42;100.00;100740.88;5040679;28;20056;-72
2023/02/21 08:54:32;;;;;;;23.73;15.82;;;;;;;1.49;100.00;100738.88;5054621;28;20044;-73
2023/02/21 08:56:58;;;;;;;24.80;16.33;;;;;;;1.59;100.00;100742.97;5038321;28;20038;-72
2023/02/21 08:59:24;;;;;;;25.88;16.75;;;;;;;1.68;100.00;100738.88;5036222;28;20637;-73
2023/02/21 09:01:50;;;;;;;26.08;15.82;;;;;;;1.76;100.00;100733.09;5049409;28;20041;-73
2023/02/21 09:04:15;;;;;;;24.58;16.25;;;;;;;1.84;100.00;100751.97;5029577;28;20057;-73
2023/02/21 09:06:41;;;;;;;23.27;16.17;;;;;;;1.93;100.00;100736.03;5033774;28;20636;-73
2023/02/21 09:09:06;;;;;;;39.58;22.75;;;;;;;2.04;100.00;100731.69;5032253;28;20025;-73
2023/02/21 09:11:32;;;;;;;33.10;20.80;;;;;;;2.14;100.00;100735.50;5051333;28;20386;-73
2023/02/21 09:13:58;;;;;;;32.78;17.38;;;;;;;2.23;100.00;100728.66;5043206;28;20025;-73
2023/02/21 09:16:23;;;;;;;26.77;17.73;;;;;;;2.32;100.00;100723.66;5037012;28;20093;-73
2023/02/21 09:18:55;;;;;;;37.90;22.58;;;;;;;2.46;100.00;100730.59;5036039;28;20029;-73
2023/02/21 09:21:21;;;;;;;40.17;23.50;;;;;;;2.57;100.00;100730.88;5039869;28;20494;-73
2023/02/21 09:23:46;;;;;;;29.17;17.58;;;;;;;2.64;100.00;100731.59;5050452;28;20071;-73
2023/02/21 09:26:12;;;;;;;34.50;21.00;;;;;;;2.79;100.00;100723.75;5037220;28;20026;-73
2023/02/21 09:28:42;;;;;;;37.63;22.20;;;;;;;2.94;100.00;100726.00;5035673;28;20064;-73
2023/02/21 09:31:07;;;;;;;36.88;24.40;;;;;;;3.03;100.00;100729.22;5036095;28;20037;-73
2023/02/21 09:33:39;;;;;;;41.55;24.35;;;;;;;3.14;100.00;100722.91;5049203;28;20056;-73
2023/02/21 09:36:06;;;;;;;27.50;15.82;;;;;;;3.23;100.00;100718.75;5035943;28;20033;-73
2023/02/21 09:38:32;;;;;;;43.33;25.25;;;;;;;3.31;100.00;100726.56;5038835;28;20043;-73
2023/02/21 09:41:03;;;;;;;41.55;24.42;;;;;;;3.40;100.00;100707.00;5036968;28;20073;-73
2023/02/21 09:43:36;;;;;;;39.17;23.17;;;;;;;3.50;100.00;100715.44;5030883;28;20040;-73
2023/02/21 09:46:11;;;;;;;42.33;24.55;;;;;;;3.57;100.00;100724.41;5042594;28;20040;-73
2023/02/21 09:48:36;;;;;;;42.20;24.73;;;;;;;3.68;100.00;100720.78;5035498;28;20030;-73
2023/02/21 09:51:04;;;;;;;40.50;23.80;;;;;;;3.77;100.00;100718.50;5035628;28;20159;-73
2023/02/21 09:53:35;;;;;;;44.13;26.55;;;;;;;3.88;100.00;100714.03;5044332;28;20025;-73
2023/02/21 09:56:10;;;;;;;37.30;24.73;;;;;;;3.98;100.00;100711.47;5045683;28;20026;-73
2023/02/21 09:58:38;;;;;;;34.08;23.23;;;;;;;4.11;100.00;100708.44;5019500;28;20056;-72
2023/02/21 10:01:07;;;;;;;39.95;24.42;;;;;;;4.23;100.00;100709.22;5034876;28;20532;-73
2023/02/21 10:03:48;;;;;;;37.20;24.45;;;;;;;4.39;100.00;100703.97;5035122;28;20105;-73
2023/02/21 10:06:28;;;;;;;42.17;25.25;;;;;;;4.54;100.00;100696.00;5034187;28;20044;-73
2023/02/21 10:09:05;;;;;;;38.25;24.13;;;;;;;4.69;100.00;100700.91;5039236;28;20040;-73
2023/02/21 10:11:32;;;;;;;35.45;22.73;;;;;;;4.85;100.00;100696.50;5050513;28;20642;-73
2023/02/21 10:14:18;;;;;;;35.47;23.10;;;;;;;5.05;100.00;100690.47;5043560;28;20032;-73
2023/02/21 10:17:12;;;;;;;34.95;23.00;;;;;;;5.21;100.00;100699.75;5042936;28;20033;-73
2023/02/21 10:19:41;;;;;;;35.53;22.27;;;;;;;5.36;100.00;100697.22;5020031;28;20108;-73
2023/02/21 10:22:18;;;;;;;29.95;19.50;;;;;;;5.51;100.00;100688.31;5035002;28;20025;-73
2023/02/21 10:24:43;;;;;;;30.92;21.30;;;;;;;5.68;100.00;100693.75;5008119;28;20052;-73
2023/02/21 10:27:17;;;;;;;32.40;20.75;;;;;;;5.83;100.00;100688.44;5048216;28;20021;-73
2023/02/21 10:29:50;;;;;;;32.33;20.70;;;;;;;5.98;100.00;100685.03;5024471;28;20041;-73
2023/02/21 10:32:15;;;;;;;33.13;21.80;;;;;;;6.14;100.00;100686.03;5036187;28;20026;-73
2023/02/21 10:34:42;;;;;;;32.65;18.45;;;;;;;6.26;100.00;100681.19;5018317;28;20026;-73
2023/02/21 10:37:23;;;;;;;32.20;20.35;;;;;;;6.42;100.00;100679.41;5047858;28;20029;-73
2023/02/21 10:39:55;;;;;;;36.88;21.08;;;;;;;6.57;100.00;100671.25;5046955;28;20067;-73
2023/02/21 10:42:41;;;;;;;29.88;20.52;;;;;;;6.75;100.00;100669.19;5027563;28;20033;-73
2023/02/21 10:45:08;;;;;;;32.22;20.33;;;;;;;6.90;100.00;100666.53;5041377;28;20030;-73
2023/02/21 10:47:56;;;;;;;33.63;21.20;;;;;;;7.05;100.00;100660.25;5028561;28;20840;-73
2023/02/21 10:50:51;;;;;;;29.70;21.10;;;;;;;7.24;100.00;100663.41;5018429;28;20028;-73
2023/02/21 10:53:36;;;;;;;30.80;20.33;;;;;;;7.36;100.00;100659.34;5030170;28;20104;-73
2023/02/21 10:56:28;;;;;;;30.60;19.35;;;;;;;7.49;100.00;100659.94;5042047;28;20083;-73
2023/02/21 10:59:00;;;;;;;24.13;16.02;;;;;;;7.69;100.00;100657.28;5040521;28;20532;-73
2023/02/21 11:01:25;;;;;;;22.75;14.65;;;;;;;7.89;100.00;100648.22;5002755;28;20072;-73
2023/02/21 11:03:56;;;;;;;20.88;14.23;;;;;;;8.03;100.00;100651.28;5033348;28;20040;-73
2023/02/21 11:06:36;;;;;;;21.33;13.65;;;;;;;8.17;100.00;100641.34;5047867;28;20163;-74
2023/02/21 11:09:02;;;;;;;21.17;13.98;;;;;;;8.31;100.00;100643.56;5033541;28;20057;-73
2023/02/21 11:11:38;;;;;;;21.80;14.15;;;;;;;8.44;100.00;100631.97;5047084;28;20059;-73
2023/02/21 11:14:19;;;;;;;22.52;14.63;;;;;;;8.57;100.00;100628.66;5006480;28;20030;-73
2023/02/21 11:16:48;;;;;;;21.75;14.30;;;;;;;8.69;100.00;100622.81;5032949;28;20432;-73
2023/02/21 11:19:14;;;;;;;24.38;13.85;;;;;;;8.77;100.00;100613.13;5036495;28;20037;-73
2023/02/21 11:21:40;;;;;;;24.08;15.23;;;;;;;8.88;100.00;100615.59;5010468;28;20026;-74
2023/02/21 11:24:06;;;;;;;21.60;15.15;;;;;;;8.96;100.00;100614.19;5024519;28;20037;-73
2023/02/21 11:26:46;;;;;;;20.75;13.75;;;;;;;9.05;100.00;100606.94;5033090;28;20033;-73
2023/02/21 11:29:24;;;;;;;22.02;13.57;;;;;;;9.12;100.00;100607.50;5031897;28;20026;-73
2023/02/21 11:31:51;;;;;;;25.05;14.63;;;;;;;9.24;100.00;100600.81;5016457;28;20021;-73
2023/02/21 11:34:18;;;;;;;19.20;13.55;;;;;;;9.32;100.00;100603.81;5014877;28;20223;-73
2023/02/21 11:36:45;;;;;;;19.42;12.98;;;;;;;9.40;100.00;100614.31;5046271;28;20033;-74
2023/02/21 11:39:19;;;;;;;21.23;13.93;;;;;;;9.53;100.00;100610.13;4984324;28;1394952;-73
2023/02/21 11:41:54;;;;;;;19.13;12.60;;;;;;;9.62;100.00;100600.06;5047048;28;20037;-73
2023/02/21 11:44:36;;;;;;;19.80;12.77;;;;;;;9.73;100.00;100606.41;5041671;28;20115;-73
2023/02/21 11:47:03;;;;;;;19.17;12.20;;;;;;;9.83;100.00;100603.56;5048091;28;20029;-73
2023/02/21 11:50:00;;;;;;;18.60;11.95;;;;;;;9.99;100.00;100593.19;5034935;28;20372;-73
2023/02/21 11:52:39;;;;;;;17.67;11.90;;;;;;;10.07;100.00;100589.78;5035523;28;20026;-73
2023/02/21 11:55:12;;;;;;;23.10;13.55;;;;;;;10.18;100.00;100584.19;5034702;28;20100;-73
2023/02/21 11:57:53;;;;;;;26.13;12.35;;;;;;;10.26;100.00;100575.22;5034718;28;20033;-73
2023/02/21 12:00:37;;;;;;;17.08;12.55;;;;;;;10.33;100.00;100572.97;5034556;28;20029;-73
2023/02/21 12:03:23;;;;;;;19.30;12.43;;;;;;;10.40;100.00;100575.44;5033271;28;20033;-74
2023/02/21 12:05:58;;;;;;;18.23;12.55;;;;;;;10.45;100.00;100561.50;5027139;28;20029;-73
2023/02/21 12:08:37;;;;;;;19.25;11.63;;;;;;;10.52;100.00;100560.00;5033645;28;20397;-73
2023/02/21 12:11:37;;;;;;;18.73;11.05;;;;;;;10.60;100.00;100558.56;5048598;28;20036;-74
2023/02/21 12:14:18;;;;;;;15.65;11.30;;;;;;;10.69;100.00;100548.47;5033860;28;20045;-73
2023/02/21 12:17:21;;;;;;;16.67;11.07;;;;;;;10.71;100.00;100539.84;5044239;28;20034;-74
2023/02/21 12:20:05;;;;;;;15.13;10.13;;;;;;;10.76;100.00;100548.13;5042023;28;20033;-73
2023/02/21 12:22:50;;;;;;;16.13;10.23;;;;;;;10.76;100.00;100556.47;5037432;28;20069;-73
2023/02/21 12:25:53;;;;;;;16.23;10.10;;;;;;;10.81;100.00;100548.06;5036547;28;20041;-73
2023/02/21 12:28:34;;;;;;;15.13;10.30;;;;;;;10.83;100.00;100547.75;5032973;28;20049;-73
2023/02/21 12:31:06;;;;;;;15.30;10.32;;;;;;;10.84;100.00;100536.38;5036400;28;20040;-73
2023/02/21 12:33:58;;;;;;;16.50;10.05;;;;;;;10.86;100.00;100531.31;5045712;28;20035;-73
2023/02/21 12:36:52;;;;;;;14.88;10.55;;;;;;;10.84;100.00;100516.94;5022394;28;20040;-73
2023/02/21 12:39:29;;;;;;;18.33;11.77;;;;;;;10.82;100.00;100516.38;5035903;28;20046;-73
2023/02/21 12:41:59;;;;;;;15.23;10.23;;;;;;;10.79;100.00;100507.81;5032844;28;20195;-73
2023/02/21 12:44:38;;;;;;;20.90;11.90;;;;;;;10.76;100.00;100514.78;5048074;28;20033;-74
2023/02/21 12:47:09;;;;;;;19.65;11.27;;;;;;;10.78;100.00;100526.44;5033228;28;20741;-74
2023/02/21 12:49:37;;;;;;;16.40;10.70;;;;;;;10.76;100.00;100537.00;5031893;28;20033;-73
2023/02/21 12:52:14;;;;;;;17.83;9.80;;;;;;;10.74;100.00;100533.69;5039211;28;20039;-73
2023/02/21 12:54:53;;;;;;;14.90;9.90;;;;;;;10.70;100.00;100530.69;5055420;28;20556;-73
2023/02/21 12:57:46;;;;;;;18.00;10.07;;;;;;;10.74;100.00;100525.38;5036558;28;20034;-73
2023/02/21 13:00:21;;;;;;;16.67;10.98;;;;;;;10.76;100.00;100517.56;5036394;28;20035;-73
2023/02/21 13:03:25;;;;;;;15.00;10.00;;;;;;;10.78;100.00;100511.69;5035996;28;20043;-73
2023/02/21 13:06:00;;;;;;;15.90;11.10;;;;;;;10.81;100.00;100503.63;5063995;28;20097;-73
2023/02/21 13:08:35;;;;;;;15.43;10.90;;;;;;;10.85;100.00;100501.06;5036415;28;20041;-73
2023/02/21 13:11:00;;;;;;;14.68;9.95;;;;;;;10.91;100.00;100488.78;5046343;28;20029;-73
2023/02/21 13:13:30;;;;;;;17.10;10.07;;;;;;;10.99;100.00;100481.75;5049199;28;20560;-73
2023/02/21 13:15:57;;;;;;;13.30;9.27;;;;;;;11.06;100.00;100471.91;5039544;28;20061;-73
2023/02/21 13:18:31;;;;;;;16.73;9.50;;;;;;;11.15;100.00;100466.53;5036248;28;20371;-73
2023/02/21 13:21:23;;;;;;;15.80;10.27;;;;;;;11.23;100.00;100467.78;5020135;28;20029;-73
2023/02/21 13:24:11;;;;;;;15.50;9.98;;;;;;;11.36;100.00;100455.91;5037022;28;20113;-73
2023/02/21 13:27:02;;;;;;;15.73;10.05;;;;;;;11.48;100.00;100464.66;5035954;28;20052;-73
2023/02/21 13:29:31;;;;;;;16.17;9.88;;;;;;;11.56;100.00;100447.28;5020406;28;20486;-73
2023/02/21 13:31:59;;;;;;;16.35;10.38;;;;;;;11.66;100.00;100440.72;4986832;28;20017;-74
2023/02/21 13:34:27;;;;;;;20.25;11.18;;;;;;;11.74;100.00;100445.59;5032615;28;20028;-73
2023/02/21 13:36:53;;;;;;;12.85;9.32;;;;;;;11.83;100.00;100440.97;5035870;28;20042;-73